Time;durP1;ratioP1;P1;durP2;ratioP2;P2;SDS_P1;SDS_P2;PMS_P1;PMS_P2;Temp;Humidity;BMP_temperature;BMP_pressure;BME280_temperature;BME280_humidity;BME280_pressure;Samples;Min_cycle;Max_cycle;Signal;HPM_P1;HPM_P2
2023/10/16 00:02:12;;;;;;;64.97;3.30;;;;;;;23.35;56.90;99890.06;7318958;19;128887;-69
2023/10/16 00:04:43;;;;;;;;;;;;;;;23.38;58.27;99897.63;7314098;19;128976;-69
2023/10/16 00:07:13;;;;;;;43.42;2.28;;;;;;;23.35;56.94;99900.53;7317477;19;129470;-68
2023/10/16 00:09:40;;;;;;;65.40;3.15;;;;;;;23.34;57.22;99896.25;7315516;19;129721;-69
2023/10/16 00:12:05;;;;;;;;;;;;;;;23.33;58.70;99891.97;7316717;19;129384;-70
2023/10/16 00:14:31;;;;;;;67.00;3.28;;;;;;;23.34;57.73;99898.88;7318068;19;129156;-66
2023/10/16 00:16:57;;;;;;;76.97;3.53;;;;;;;23.32;57.06;99900.81;7314376;19;130066;-68
2023/10/16 00:19:24;;;;;;;95.30;4.93;;;;;;;23.29;57.60;99893.22;7313730;19;129886;-66
2023/10/16 00:21:52;;;;;;;99.68;4.85;;;;;;;23.29;57.06;99890.59;7316890;19;129049;-68
2023/10/16 00:24:18;;;;;;;101.43;5.07;;;;;;;23.29;56.83;99895.84;7316459;19;128773;-68
2023/10/16 00:26:49;;;;;;;125.67;5.93;;;;;;;23.28;56.94;99888.13;7314074;19;130154;-68
2023/10/16 00:29:24;;;;;;;97.55;4.82;;;;;;;23.28;57.26;99894.22;7315925;19;131664;-68
2023/10/16 00:31:51;;;;;;;73.00;3.63;;;;;;;23.25;56.97;99881.34;7316232;19;129243;-68
2023/10/16 00:34:20;;;;;;;83.68;4.22;;;;;;;23.10;53.68;99890.66;7314141;19;128840;-66
2023/10/16 00:36:47;;;;;;;32.60;1.98;;;;;;;23.18;52.51;99890.75;7315679;19;129062;-68
2023/10/16 00:39:22;;;;;;;;;;;;;;;23.26;55.54;99883.00;7323482;19;129211;-68
2023/10/16 00:41:49;;;;;;;37.38;1.95;;;;;;;23.24;53.77;99884.94;7320468;19;128907;-67
2023/10/16 00:44:17;;;;;;;45.03;2.35;;;;;;;23.19;55.05;99879.28;7315216;19;129127;-66
2023/10/16 00:46:45;;;;;;;46.63;2.38;;;;;;;23.21;55.73;99877.34;7316236;19;129702;-67
2023/10/16 00:49:13;;;;;;;67.50;3.33;;;;;;;23.20;56.17;99875.72;7312979;19;129376;-66
2023/10/16 00:51:39;;;;;;;60.20;3.30;;;;;;;23.18;56.34;99878.47;7315315;19;129506;-68
2023/10/16 00:54:17;;;;;;;57.43;2.97;;;;;;;23.19;56.94;99881.91;7315716;19;129208;-67
2023/10/16 00:56:47;;;;;;;65.28;3.20;;;;;;;23.17;56.75;99873.38;7314991;19;129433;-68
2023/10/16 00:59:16;;;;;;;77.35;3.83;;;;;;;23.18;56.22;99872.41;7313645;19;129696;-68
2023/10/16 01:01:43;;;;;;;47.72;2.42;;;;;;;23.07;56.63;99856.84;7313239;19;131906;-66
2023/10/16 01:04:10;;;;;;;47.00;2.50;;;;;;;23.06;56.43;99869.13;7314736;19;129949;-68
2023/10/16 01:06:41;;;;;;;34.10;1.88;;;;;;;23.09;56.30;99860.13;7315618;19;129302;-67
2023/10/16 01:09:17;;;;;;;35.65;1.90;;;;;;;23.18;56.05;99882.88;7311357;19;132452;-68
2023/10/16 01:11:43;;;;;;;50.85;2.55;;;;;;;23.18;56.13;99877.63;7315016;19;129436;-68
2023/10/16 01:14:08;;;;;;;26.87;1.47;;;;;;;23.18;56.33;99877.63;7313137;19;129057;-68
2023/10/16 01:16:34;;;;;;;55.53;3.10;;;;;;;23.17;56.92;99881.25;7313895;19;129494;-69
2023/10/16 01:19:01;;;;;;;51.23;2.53;;;;;;;23.17;56.17;99889.13;7311241;19;132587;-67
2023/10/16 01:21:31;;;;;;;70.45;3.58;;;;;;;23.13;56.69;99885.09;7315083;19;128780;-68
2023/10/16 01:24:02;;;;;;;54.28;2.72;;;;;;;23.00;53.27;99885.44;7313994;19;128622;-69
2023/10/16 01:26:28;;;;;;;75.88;3.80;;;;;;;23.07;52.94;99883.06;7314345;19;129861;-67
2023/10/16 01:28:54;;;;;;;57.17;2.83;;;;;;;23.17;54.08;99883.88;7314233;19;130183;-68
2023/10/16 01:31:21;;;;;;;68.70;3.47;;;;;;;23.15;54.21;99883.97;7314276;19;129530;-67
2023/10/16 01:33:47;;;;;;;61.33;3.05;;;;;;;23.04;55.35;99859.72;7315021;19;128643;-68
2023/10/16 01:36:13;;;;;;;24.67;1.57;;;;;;;23.15;55.26;99888.41;7324421;19;132397;-66
2023/10/16 01:38:39;;;;;;;59.80;3.08;;;;;;;23.14;55.51;99886.75;7314487;19;132615;-68
2023/10/16 01:41:05;;;;;;;74.40;3.50;;;;;;;23.14;55.32;99878.88;7313462;19;130346;-66
2023/10/16 01:43:35;;;;;;;93.53;4.87;;;;;;;23.13;55.95;99869.38;7312847;19;129570;-69
2023/10/16 01:46:08;;;;;;;75.05;3.63;;;;;;;23.13;56.91;99866.75;7313200;19;129405;-69
2023/10/16 01:48:42;;;;;;;73.93;3.83;;;;;;;23.12;57.03;99867.72;7313280;19;129624;-67
2023/10/16 01:51:20;;;;;;;79.40;3.85;;;;;;;23.03;56.12;99850.22;7311147;19;128919;-66
2023/10/16 01:53:51;;;;;;;47.80;2.58;;;;;;;23.14;56.43;99871.00;7312871;19;129023;-68
2023/10/16 01:56:17;;;;;;;96.57;4.80;;;;;;;23.03;55.81;99850.22;7313002;19;129426;-68
2023/10/16 01:58:47;;;;;;;67.67;3.20;;;;;;;23.01;56.31;99846.91;7311517;19;129364;-70
2023/10/16 02:01:15;;;;;;;63.67;2.92;;;;;;;22.99;56.48;99846.25;7310414;19;128894;-67
2023/10/16 02:03:44;;;;;;;69.88;3.20;;;;;;;23.13;56.41;99878.06;7311732;19;131017;-69
2023/10/16 02:06:16;;;;;;;90.90;4.40;;;;;;;23.12;56.37;99878.22;7312461;19;130019;-66
2023/10/16 02:08:44;;;;;;;99.15;4.75;;;;;;;23.11;56.19;99876.56;7309802;19;130288;-68
2023/10/16 02:11:10;;;;;;;76.65;3.83;;;;;;;22.91;54.91;99853.97;7306316;19;129115;-68
2023/10/16 02:13:40;;;;;;;;;;;;;;;22.98;52.95;99881.28;7312642;19;131160;-66
2023/10/16 02:16:09;;;;;;;79.20;3.85;;;;;;;23.13;53.61;99879.88;7311201;19;132051;-68
2023/10/16 02:18:40;;;;;;;64.80;3.42;;;;;;;23.12;53.83;99880.84;7311675;19;129508;-67
2023/10/16 02:21:12;;;;;;;58.20;3.03;;;;;;;23.09;54.93;99873.22;7315370;19;128971;-68
2023/10/16 02:23:46;;;;;;;54.70;2.80;;;;;;;23.09;56.03;99873.22;7319747;19;129114;-67
2023/10/16 02:26:12;;;;;;;55.42;2.67;;;;;;;22.99;55.31;99857.53;7318704;19;132652;-68
2023/10/16 02:28:40;;;;;;;81.90;3.90;;;;;;;23.07;56.00;99870.75;7320189;19;129218;-70
2023/10/16 02:31:14;;;;;;;99.97;4.50;;;;;;;23.06;56.10;99869.13;7331578;19;129158;-65
2023/10/16 02:33:50;;;;;;;108.95;5.10;;;;;;;23.06;55.67;99876.16;7323601;19;128926;-68
2023/10/16 02:36:17;;;;;;;78.25;3.90;;;;;;;23.05;55.44;99879.75;7318817;19;132615;-68
2023/10/16 02:38:43;;;;;;;108.13;5.05;;;;;;;23.05;56.01;99874.50;7319740;19;129428;-67
2023/10/16 02:41:09;;;;;;;87.00;4.40;;;;;;;23.05;55.69;99875.34;7319617;19;129139;-68
2023/10/16 02:43:41;;;;;;;75.70;4.23;;;;;;;23.04;56.04;99880.69;7316419;19;129265;-68
2023/10/16 02:46:09;;;;;;;66.10;3.22;;;;;;;23.04;56.25;99878.91;7318763;19;129282;-68
2023/10/16 02:48:35;;;;;;;53.35;2.97;;;;;;;23.02;55.88;99877.41;7317561;19;129133;-65
2023/10/16 02:51:02;;;;;;;28.27;1.52;;;;;;;23.06;55.70;99881.38;7315417;19;129167;-66
2023/10/16 02:53:29;;;;;;;108.85;5.28;;;;;;;23.02;56.46;99874.78;7317701;19;129012;-66
2023/10/16 02:56:02;;;;;;;53.85;2.78;;;;;;;23.02;55.98;99878.22;7318576;19;129489;-69
2023/10/16 02:58:28;;;;;;;55.97;2.97;;;;;;;22.90;54.21;99883.78;7318895;19;129832;-68
2023/10/16 03:00:59;;;;;;;58.37;2.77;;;;;;;22.97;52.38;99874.38;7316196;19;129044;-68
2023/10/16 03:03:28;;;;;;;65.28;3.30;;;;;;;23.08;53.78;99879.47;7318217;19;129326;-69
2023/10/16 03:05:55;;;;;;;51.10;2.58;;;;;;;23.04;54.55;99880.69;7319814;19;129191;-68
2023/10/16 03:08:30;;;;;;;35.72;1.95;;;;;;;23.04;54.50;99883.31;7316938;19;129696;-68
2023/10/16 03:10:59;;;;;;;65.88;3.20;;;;;;;23.02;55.32;99887.91;7316299;19;129243;-68
2023/10/16 03:13:25;;;;;;;67.60;3.47;;;;;;;23.03;55.66;99879.06;7318188;19;129193;-68
2023/10/16 03:15:59;;;;;;;33.07;1.83;;;;;;;23.02;56.19;99885.28;7317901;19;129681;-68
2023/10/16 03:18:25;;;;;;;45.38;2.35;;;;;;;23.02;55.25;99890.53;7318030;19;131536;-68
2023/10/16 03:21:01;;;;;;;37.20;1.87;;;;;;;23.02;55.93;99878.22;7314733;19;129161;-67
2023/10/16 03:23:30;;;;;;;48.33;2.60;;;;;;;23.01;55.76;99889.69;7317173;19;129016;-69
2023/10/16 03:25:59;;;;;;;50.85;2.67;;;;;;;23.00;56.19;99892.47;7317058;19;132217;-68
2023/10/16 03:28:24;;;;;;;35.22;1.92;;;;;;;23.00;56.39;99889.84;7325134;19;130953;-69
2023/10/16 03:30:50;;;;;;;37.53;2.00;;;;;;;23.01;55.78;99886.22;7314874;19;129190;-66
2023/10/16 03:33:15;;;;;;;53.77;2.77;;;;;;;23.00;55.70;99884.59;7317944;19;129226;-66
2023/10/16 03:35:44;;;;;;;58.22;2.97;;;;;;;23.00;56.01;99887.22;7318929;19;130987;-68
2023/10/16 03:38:20;;;;;;;65.05;3.05;;;;;;;22.96;56.27;99878.81;7317783;19;129909;-68
2023/10/16 03:40:50;;;;;;;61.72;2.95;;;;;;;23.00;55.91;99888.06;7311885;19;129384;-68
2023/10/16 03:43:18;;;;;;;31.55;1.85;;;;;;;22.99;56.34;99882.94;7317749;19;130069;-68
2023/10/16 03:45:43;;;;;;;54.35;2.63;;;;;;;22.91;55.13;99886.25;7317443;19;128997;-67
2023/10/16 03:48:10;;;;;;;61.57;3.13;;;;;;;22.93;53.17;99883.50;7316703;19;129820;-68
2023/10/16 03:50:39;;;;;;;77.03;3.78;;;;;;;23.04;53.51;99883.31;7315170;19;128720;-68
2023/10/16 03:53:08;;;;;;;44.03;2.28;;;;;;;23.02;53.82;99885.28;7317713;19;129305;-69
2023/10/16 03:55:44;;;;;;;90.80;4.30;;;;;;;23.01;55.88;99881.00;7317916;19;129395;-68
2023/10/16 03:58:13;;;;;;;55.75;2.53;;;;;;;22.97;55.31;99879.63;7317418;19;129573;-68
2023/10/16 04:00:52;;;;;;;78.75;4.00;;;;;;;22.93;54.94;99878.25;7314499;19;129002;-69
2023/10/16 04:03:21;;;;;;;51.60;2.65;;;;;;;22.96;55.91;99878.81;7312626;19;130542;-68
2023/10/16 04:05:48;;;;;;;44.47;2.60;;;;;;;22.97;55.67;99884.88;7316844;19;129647;-71
2023/10/16 04:08:15;;;;;;;55.55;2.78;;;;;;;22.96;56.14;99884.03;7316653;19;129518;-72
2023/10/16 04:10:47;;;;;;;70.13;3.47;;;;;;;22.95;56.62;99886.81;7314183;19;128837;-73
2023/10/16 04:13:14;;;;;;;66.82;3.17;;;;;;;22.94;55.95;99885.97;7313913;19;129395;-72
2023/10/16 04:18:09;;;;;;;50.60;2.50;;;;;;;22.96;55.85;99884.03;7318176;19;129604;-73
2023/10/16 04:20:46;;;;;;;85.78;4.38;;;;;;;22.96;55.61;99888.44;7316154;19;129950;-71
2023/10/16 04:23:35;;;;;;;33.35;1.75;;;;;;;22.94;56.25;99885.16;7332152;19;128649;-68
2023/10/16 04:31:45;;;;;;;48.67;2.45;;;;;;;22.93;56.36;99883.50;7317691;19;130124;-70
2023/10/16 04:51:09;;;;;;;87.60;4.43;;;;;;;22.93;55.58;99883.50;7313358;19;130107;-70
2023/10/16 04:53:12;;;;;;;123.30;6.05;;;;;;;22.93;55.48;99883.50;7315486;19;128833;-71
2023/10/16 04:55:53;;;;;;;87.30;4.50;;;;;;;22.91;56.04;99888.03;7317490;19;130384;-70
2023/10/16 05:01:33;;;;;;;64.05;3.15;;;;;;;22.80;55.91;99862.84;7315743;19;129153;-71
2023/10/16 05:06:49;;;;;;;83.93;4.10;;;;;;;22.90;56.14;99878.53;7315310;19;131338;-71
2023/10/16 05:19:54;;;;;;;33.58;1.75;;;;;;;22.91;56.05;99874.94;7311624;19;130422;-72
2023/10/16 06:14:17;;;;;;;34.58;1.95;;;;;;;22.85;54.83;99896.47;7327693;19;128876;-68
2023/10/16 06:16:47;;;;;;;105.10;5.13;;;;;;;22.83;55.43;99896.63;7319044;19;129022;-72
2023/10/16 06:19:17;;;;;;;117.00;5.50;;;;;;;22.83;55.72;99887.94;7313524;19;129434;-70
2023/10/16 06:21:48;;;;;;;117.13;5.72;;;;;;;22.83;55.87;99895.78;7310120;19;130670;-71
2023/10/16 06:24:25;;;;;;;84.25;4.30;;;;;;;22.81;55.82;99895.09;7314611;19;129663;-70
2023/10/16 06:26:55;;;;;;;127.03;6.25;;;;;;;22.77;55.43;99884.09;7311539;19;132190;-73
2023/10/16 06:29:24;;;;;;;119.82;5.93;;;;;;;22.81;55.69;99892.47;7310560;19;129840;-73
2023/10/16 06:31:58;;;;;;;135.18;6.57;;;;;;;22.81;56.03;99885.44;7312129;19;129240;-71
2023/10/16 06:34:24;;;;;;;132.70;6.80;;;;;;;22.79;55.35;99883.94;7310410;19;129697;-69
2023/10/16 06:36:52;;;;;;;106.37;5.30;;;;;;;22.82;55.61;99894.16;7308576;19;132898;-70
2023/10/16 06:39:28;;;;;;;64.68;3.58;;;;;;;22.81;56.21;99889.84;7307416;19;129086;-68
2023/10/16 06:41:54;;;;;;;106.72;5.38;;;;;;;22.81;56.11;99890.69;7307792;19;129870;-69
2023/10/16 06:44:28;;;;;;;40.55;2.03;;;;;;;22.80;56.32;99901.31;7309053;19;129324;-69
2023/10/16 06:46:58;;;;;;;52.20;2.63;;;;;;;22.80;55.73;99910.03;7311049;19;129765;-69
2023/10/16 06:49:26;;;;;;;41.03;2.17;;;;;;;22.79;56.48;99910.97;7311626;19;129570;-68
2023/10/16 06:51:56;;;;;;;57.80;3.10;;;;;;;22.74;56.18;99907.94;7311566;19;129327;-71
2023/10/16 06:54:24;;;;;;;30.25;1.75;;;;;;;22.69;53.29;99906.72;7308387;19;134092;-69
2023/10/16 06:56:49;;;;;;;63.25;3.38;;;;;;;22.89;53.84;99913.59;7308797;19;129384;-71
2023/10/16 06:59:16;;;;;;;53.97;2.87;;;;;;;22.83;54.82;99909.75;7309115;19;128974;-68
2023/10/16 07:01:46;;;;;;;;;;;;;;;22.84;56.09;99907.94;7308477;19;128956;-69
2023/10/16 07:04:15;;;;;;;53.50;2.63;;;;;;;22.81;55.29;99906.41;7307912;19;131825;-71
2023/10/16 07:06:43;;;;;;;48.22;2.65;;;;;;;22.80;55.45;99915.25;7314944;19;129110;-70
2023/10/16 07:09:09;;;;;;;83.57;4.13;;;;;;;22.79;55.46;99916.22;7316185;19;129530;-75
2023/10/16 07:11:35;;;;;;;28.13;1.70;;;;;;;22.77;55.37;99914.72;7323479;19;128771;-76
2023/10/16 07:14:00;;;;;;;31.40;1.73;;;;;;;22.67;55.54;99898.16;7320798;19;129767;-72
2023/10/16 07:16:28;;;;;;;36.97;2.07;;;;;;;22.76;56.09;99915.66;7317034;19;132152;-68
2023/10/16 07:18:54;;;;;;;84.38;4.40;;;;;;;22.76;55.94;99918.28;7316376;19;129365;-69
2023/10/16 07:21:22;;;;;;;54.93;2.73;;;;;;;22.73;56.45;99913.31;7318058;19;129163;-71
2023/10/16 07:23:48;;;;;;;110.43;5.68;;;;;;;22.69;56.20;99901.47;7321801;19;129144;-71
2023/10/16 07:26:19;;;;;;;69.27;3.63;;;;;;;22.81;56.48;99914.28;7320657;19;129095;-69
2023/10/16 07:28:50;;;;;;;104.03;5.15;;;;;;;22.77;56.04;99917.34;7316040;19;129406;-70
2023/10/16 07:31:16;;;;;;;56.28;2.80;;;;;;;22.77;55.78;99922.56;7318062;19;129028;-68
2023/10/16 07:33:47;;;;;;;68.77;3.63;;;;;;;22.73;56.86;99924.66;7318728;19;129439;-69
2023/10/16 07:36:12;;;;;;;58.90;3.38;;;;;;;22.74;55.87;99925.47;7316063;19;132813;-69
2023/10/16 07:38:38;;;;;;;98.80;5.23;;;;;;;22.73;56.27;99931.66;7315518;19;128967;-68
2023/10/16 07:41:04;;;;;;;93.07;4.80;;;;;;;22.66;55.02;99922.72;7314483;19;129523;-69
2023/10/16 07:43:34;;;;;;;81.93;3.93;;;;;;;22.67;52.71;99921.75;7318707;19;129559;-70
2023/10/16 07:49:01;;;;;;;103.32;5.38;;;;;;;22.65;55.36;99897.47;7315955;19;129010;-67
2023/10/16 07:51:27;;;;;;;69.05;3.58;;;;;;;22.73;55.17;99918.56;7314866;19;129916;-70
2023/10/16 07:53:54;;;;;;;55.30;3.03;;;;;;;22.72;55.73;99914.31;7317541;19;129534;-71
2023/10/16 07:58:57;;;;;;;61.78;3.20;;;;;;;22.73;55.23;99918.56;7317375;19;129125;-70
2023/10/16 08:04:19;;;;;;;42.08;2.25;;;;;;;22.71;56.49;99917.91;7317040;19;130038;-70
2023/10/16 08:06:52;;;;;;;62.05;3.40;;;;;;;22.71;56.31;99917.91;7331552;19;131827;-70
2023/10/16 08:12:12;;;;;;;104.22;5.40;;;;;;;22.72;55.55;99922.16;7316260;19;128837;-71
2023/10/16 08:14:41;;;;;;;64.50;3.28;;;;;;;22.71;56.17;99920.53;7314663;19;132122;-70
2023/10/16 08:17:17;;;;;;;40.25;2.28;;;;;;;22.72;55.62;99923.00;7314549;19;132496;-68
2023/10/16 08:19:44;;;;;;;79.28;4.15;;;;;;;22.70;56.07;99918.84;7314560;19;128835;-71
2023/10/16 08:22:13;;;;;;;64.78;3.35;;;;;;;22.70;55.75;99924.94;7313152;19;129087;-69
2023/10/16 08:24:43;;;;;;;57.50;3.10;;;;;;;22.70;56.76;99931.94;7314280;19;129053;-70
2023/10/16 08:27:23;;;;;;;91.05;4.57;;;;;;;22.58;54.14;99930.44;7311202;19;130361;-70
2023/10/16 08:29:54;;;;;;;125.80;6.40;;;;;;;22.55;53.38;99917.59;7311121;19;129029;-69
2023/10/16 08:35:09;;;;;;;31.75;1.77;;;;;;;22.70;54.61;99945.06;7317728;19;129762;-71
2023/10/16 08:37:34;;;;;;;61.13;3.38;;;;;;;22.68;55.02;99944.38;7310825;19;132941;-68
2023/10/16 08:40:00;;;;;;;90.53;4.87;;;;;;;22.66;55.67;99934.03;7313037;19;129164;-68
2023/10/16 08:42:25;;;;;;;133.00;7.10;;;;;;;22.71;55.08;99951.97;7314180;19;129038;-68
2023/10/16 08:44:51;;;;;;;109.32;5.53;;;;;;;22.69;55.70;99948.66;7312124;19;129158;-67
2023/10/16 08:47:24;;;;;;;48.90;2.67;;;;;;;22.67;56.62;99935.69;7314996;19;129933;-69
2023/10/16 08:49:54;;;;;;;68.75;3.63;;;;;;;22.70;55.81;99942.44;7315180;19;129229;-67
2023/10/16 08:52:22;;;;;;;71.97;3.60;;;;;;;22.68;55.58;99939.97;7313084;19;129394;-67
2023/10/16 08:57:25;;;;;;;45.20;2.40;;;;;;;22.68;55.86;99944.38;7317214;19;129266;-68
2023/10/16 08:59:51;;;;;;;52.83;2.83;;;;;;;22.68;55.61;99946.97;7314183;19;128713;-68
2023/10/16 09:02:18;;;;;;;;;;;;;;;22.70;57.49;99943.28;7330625;19;128849;-70
2023/10/16 09:04:45;;;;;;;49.53;2.97;;;;;;;22.66;56.39;99935.84;7315951;19;129712;-69
2023/10/16 09:07:19;;;;;;;59.83;3.22;;;;;;;22.67;55.67;99945.34;7313456;19;129218;-69
2023/10/16 09:09:53;;;;;;;47.55;2.75;;;;;;;22.57;56.10;99934.88;7313234;19;130164;-68
2023/10/16 09:12:37;;;;;;;63.42;3.33;;;;;;;22.65;55.90;99947.25;7315116;19;128963;-71
2023/10/16 09:15:05;;;;;;;30.98;1.58;;;;;;;22.56;53.20;99948.09;7316444;19;129745;-68
2023/10/16 09:17:33;;;;;;;56.53;3.13;;;;;;;22.61;52.93;99941.47;7316072;19;129171;-70
2023/10/16 09:19:58;;;;;;;64.28;3.67;;;;;;;22.73;53.70;99939.53;7312389;19;128903;-67
2023/10/16 09:22:26;;;;;;;86.60;4.00;;;;;;;22.68;54.79;99941.75;7315278;19;130176;-70
2023/10/16 09:24:52;;;;;;;78.50;4.07;;;;;;;22.66;55.40;99941.06;7316408;19;129089;-68
2023/10/16 09:27:30;;;;;;;61.93;3.13;;;;;;;22.64;55.12;99940.38;7316286;19;129195;-67
2023/10/16 09:29:58;;;;;;;106.25;5.53;;;;;;;22.62;55.83;99940.53;7310423;19;129098;-68
2023/10/16 09:32:34;;;;;;;70.03;3.65;;;;;;;22.53;55.38;99922.16;7316062;19;129027;-70
2023/10/16 09:35:06;;;;;;;142.05;7.32;;;;;;;22.63;55.30;99941.31;7313618;19;129110;-68
2023/10/16 09:37:35;;;;;;;50.80;2.80;;;;;;;22.51;55.53;99914.41;7312463;19;132340;-70
2023/10/16 09:40:20;;;;;;;104.70;4.85;;;;;;;22.63;56.54;99936.09;7313315;19;129693;-70
2023/10/16 09:42:55;;;;;;;68.93;3.63;;;;;;;22.63;56.09;99933.47;7315780;19;129127;-68
2023/10/16 09:45:23;;;;;;;130.32;6.28;;;;;;;22.62;56.23;99922.19;7314675;19;129325;-68
2023/10/16 09:47:51;;;;;;;89.40;4.55;;;;;;;22.61;55.81;99930.97;7313827;19;129546;-70
2023/10/16 09:50:18;;;;;;;49.30;2.90;;;;;;;22.60;56.22;99929.34;7313917;19;129007;-70
2023/10/16 09:52:45;;;;;;;33.95;1.92;;;;;;;22.62;56.23;99931.81;7314948;19;128986;-68
2023/10/16 09:55:12;;;;;;;43.00;2.33;;;;;;;22.62;56.15;99937.06;7318067;19;130574;-69
2023/10/16 09:57:46;;;;;;;25.15;1.55;;;;;;;22.59;56.85;99937.34;7331599;19;129220;-68
2023/10/16 10:00:28;;;;;;;61.75;3.20;;;;;;;22.61;56.44;99943.28;7316923;19;128826;-69
2023/10/16 10:03:07;;;;;;;69.18;3.60;;;;;;;22.54;54.21;99942.16;7313874;19;128805;-69
2023/10/16 10:05:41;;;;;;;57.55;3.03;;;;;;;22.60;52.33;99934.59;7315037;19;129553;-68
2023/10/16 10:08:23;;;;;;;69.55;3.42;;;;;;;22.55;54.49;99910.59;7310484;19;130161;-66
2023/10/16 10:13:43;;;;;;;57.45;3.05;;;;;;;22.60;54.97;99931.13;7314241;19;128809;-69
2023/10/16 10:16:20;;;;;;;32.05;2.00;;;;;;;22.56;55.03;99933.19;7315449;19;129237;-69
2023/10/16 10:18:47;;;;;;;76.55;3.92;;;;;;;22.60;55.13;99933.75;7314751;19;129651;-67
2023/10/16 10:21:18;;;;;;;;;;;;;;;22.62;56.96;99934.44;7311289;19;129399;-67
2023/10/16 10:23:47;;;;;;;49.75;2.45;;;;;;;22.59;55.84;99932.09;7314090;19;128803;-69
2023/10/16 10:26:24;;;;;;;69.57;3.78;;;;;;;22.45;57.06;99906.25;7314685;19;129528;-68
2023/10/16 10:29:11;;;;;;;66.90;3.38;;;;;;;22.58;56.47;99931.25;7312891;19;131734;-70
2023/10/16 10:31:41;;;;;;;43.72;2.35;;;;;;;22.59;56.10;99932.09;7311993;19;129338;-66
2023/10/16 10:34:23;;;;;;;63.15;3.25;;;;;;;22.58;57.22;99930.44;7313195;19;129316;-69
2023/10/16 10:36:49;;;;;;;55.30;2.85;;;;;;;22.58;55.81;99933.03;7313946;19;129743;-68
2023/10/16 10:39:21;;;;;;;46.75;2.50;;;;;;;22.56;56.71;99932.38;7314803;19;129637;-69
2023/10/16 10:41:54;;;;;;;80.45;4.10;;;;;;;22.55;56.94;99926.31;7311907;19;128963;-68
2023/10/16 10:44:43;;;;;;;55.30;3.00;;;;;;;22.52;57.03;99920.47;7319957;19;129033;-69
2023/10/16 10:47:23;;;;;;;45.45;2.38;;;;;;;22.56;56.72;99932.38;7319817;19;129117;-68
2023/10/16 10:49:50;;;;;;;34.92;1.95;;;;;;;22.44;54.27;99933.44;7318477;19;129513;-68
2023/10/16 10:52:19;;;;;;;41.67;2.40;;;;;;;22.51;53.15;99929.31;7325125;19;128678;-67
2023/10/16 10:54:48;;;;;;;27.25;1.58;;;;;;;22.63;53.62;99922.97;7326190;19;128965;-68
2023/10/16 10:57:24;;;;;;;33.75;2.25;;;;;;;22.58;55.08;99930.44;7319888;19;129608;-68
2023/10/16 11:05:25;;;;;;;29.15;1.75;;;;;;;22.57;55.71;99923.53;7319779;19;129554;-70
2023/10/16 11:10:41;;;;;;;10.75;1.08;;;;;;;22.55;56.07;99925.47;7318165;19;128966;-66
2023/10/16 11:13:08;;;;;;;36.00;2.20;;;;;;;22.54;55.48;99929.06;7319361;19;129037;-68
2023/10/16 11:15:34;;;;;;;43.92;2.38;;;;;;;22.55;56.20;99920.22;7317186;19;129309;-69
2023/10/16 11:18:09;;;;;;;66.90;3.63;;;;;;;22.54;56.67;99918.59;7316740;19;131106;-69
2023/10/16 11:20:36;;;;;;;54.95;2.85;;;;;;;22.54;55.95;99913.34;7318173;19;129670;-70
2023/10/16 11:23:12;;;;;;;62.35;3.00;;;;;;;22.52;56.15;99907.38;7319647;19;128798;-71
2023/10/16 11:25:50;;;;;;;58.80;3.05;;;;;;;22.44;55.84;99888.91;7319059;19;129016;-69
2023/10/16 11:28:28;;;;;;;41.58;2.35;;;;;;;22.52;56.91;99907.38;7316601;19;129679;-66
2023/10/16 11:30:56;;;;;;;46.35;2.75;;;;;;;22.50;56.12;99906.69;7320623;19;129768;-69
2023/10/16 11:33:44;;;;;;;39.60;2.15;;;;;;;22.50;56.59;99915.38;7323267;19;128893;-68
2023/10/16 11:36:13;;;;;;;66.18;3.50;;;;;;;22.52;56.05;99910.84;7319964;19;132255;-66
2023/10/16 11:38:39;;;;;;;59.20;2.95;;;;;;;22.42;53.80;99912.63;7317327;19;129501;-67
2023/10/16 11:41:05;;;;;;;20.57;1.40;;;;;;;22.52;52.82;99907.38;7315806;19;132096;-68
2023/10/16 11:43:38;;;;;;;12.40;1.03;;;;;;;22.59;54.17;99904.09;7316997;19;129101;-70
2023/10/16 11:46:20;;;;;;;30.60;2.15;;;;;;;22.55;54.87;99904.50;7321256;19;128828;-70
2023/10/16 11:48:47;;;;;;;2.00;0.50;;;;;;;22.52;55.00;99899.50;7336078;19;130101;-69
2023/10/16 11:51:17;;;;;;;28.58;1.60;;;;;;;22.51;55.34;99896.06;7321669;19;129740;-70
2023/10/16 11:53:45;;;;;;;38.70;2.13;;;;;;;22.52;55.58;99904.75;7318795;19;128794;-69
2023/10/16 11:56:13;;;;;;;67.80;3.45;;;;;;;22.53;55.46;99895.94;7320411;19;129300;-70
2023/10/16 11:58:39;;;;;;;53.45;2.78;;;;;;;22.51;55.79;99901.28;7318536;19;129692;-67
2023/10/16 12:01:09;;;;;;;;;;;;;;;22.55;56.95;99899.25;7316537;19;129724;-70
2023/10/16 12:03:38;;;;;;;55.03;2.78;;;;;;;22.53;55.56;99901.19;7318403;19;129274;-70
2023/10/16 12:06:13;;;;;;;53.10;2.83;;;;;;;22.50;57.02;99893.56;7318849;19;129402;-70
2023/10/16 12:08:41;;;;;;;57.72;2.97;;;;;;;22.41;55.88;99876.88;7318134;19;129334;-70
2023/10/16 12:11:07;;;;;;;42.85;2.47;;;;;;;22.50;55.76;99886.56;7314013;19;131294;-68
2023/10/16 12:13:32;;;;;;;30.42;1.67;;;;;;;22.49;56.38;99882.28;7317198;19;128887;-67
2023/10/16 12:15:58;;;;;;;56.40;2.88;;;;;;;22.49;56.32;99889.31;7318488;19;129023;-67
2023/10/16 12:18:26;;;;;;;62.83;3.17;;;;;;;22.37;56.62;99864.22;7318355;19;129458;-70
2023/10/16 12:20:52;;;;;;;94.30;4.65;;;;;;;22.49;56.77;99884.06;7318415;19;130133;-66
2023/10/16 12:23:20;;;;;;;;;;;;;;;22.52;57.94;99889.03;7316355;19;128801;-70
2023/10/16 12:25:54;;;;;;;62.83;3.33;;;;;;;22.43;53.77;99887.25;7315836;19;128809;-69
2023/10/16 12:28:21;;;;;;;88.80;4.53;;;;;;;22.48;53.06;99878.00;7315430;19;129040;-68
2023/10/16 12:30:46;;;;;;;67.03;3.57;;;;;;;22.53;54.18;99885.47;7316073;19;129166;-70
2023/10/16 12:33:11;;;;;;;54.15;2.70;;;;;;;22.49;54.93;99884.91;7316780;19;129250;-68
2023/10/16 12:35:37;;;;;;;69.17;3.53;;;;;;;22.50;55.32;99888.34;7315086;19;128961;-68
2023/10/16 12:38:07;;;;;;;70.27;3.57;;;;;;;22.48;55.68;99877.16;7316910;19;129147;-70
2023/10/16 12:40:37;;;;;;;17.00;1.02;;;;;;;22.48;55.88;99880.63;7315830;19;133415;-70
2023/10/16 12:43:06;;;;;;;42.53;2.30;;;;;;;22.34;56.09;99860.09;7323758;19;129131;-71
2023/10/16 12:45:32;;;;;;;31.80;1.83;;;;;;;22.47;56.18;99876.34;7326149;19;128799;-68
2023/10/16 12:47:57;;;;;;;60.13;3.42;;;;;;;22.47;56.12;99883.38;7316006;19;129444;-66
2023/10/16 12:50:27;;;;;;;24.90;1.80;;;;;;;22.47;56.51;99875.50;7316747;19;130164;-68
2023/10/16 12:52:56;;;;;;;43.33;2.60;;;;;;;22.49;55.93;99884.06;7316307;19;128946;-69
2023/10/16 12:55:24;;;;;;;31.80;1.95;;;;;;;22.46;56.40;99873.88;7317190;19;128754;-70
2023/10/16 12:57:51;;;;;;;64.80;3.28;;;;;;;22.48;56.15;99877.16;7313647;19;129959;-67
2023/10/16 13:00:18;;;;;;;33.17;1.90;;;;;;;22.48;56.18;99874.53;7316103;19;130216;-68
2023/10/16 13:02:52;;;;;;;34.67;1.95;;;;;;;22.47;57.68;99872.91;7319316;19;129176;-69
2023/10/16 13:05:23;;;;;;;48.80;2.72;;;;;;;22.46;56.75;99871.25;7314555;19;128784;-68
2023/10/16 13:07:50;;;;;;;62.88;3.80;;;;;;;22.38;56.53;99852.78;7314618;19;129593;-69
2023/10/16 13:10:20;;;;;;;31.13;1.73;;;;;;;22.33;56.39;99850.56;7312923;19;132314;-69
2023/10/16 13:12:46;;;;;;;34.13;1.95;;;;;;;22.44;56.34;99870.56;7316146;19;128864;-68
2023/10/16 13:15:16;;;;;;;64.72;3.28;;;;;;;22.29;53.23;99845.75;7313926;19;128941;-69
2023/10/16 13:17:44;;;;;;;37.85;2.10;;;;;;;22.44;53.58;99860.09;7314710;19;129653;-68
2023/10/16 13:20:17;;;;;;;63.92;3.53;;;;;;;22.39;54.52;99842.16;7312118;19;129368;-68
2023/10/16 13:22:43;;;;;;;33.63;1.85;;;;;;;22.47;54.92;99859.78;7313544;19;128919;-68
2023/10/16 13:25:12;;;;;;;54.83;2.97;;;;;;;22.48;55.38;99864.91;7316096;19;128965;-69
2023/10/16 13:27:38;;;;;;;39.80;2.10;;;;;;;22.45;55.39;99866.97;7315600;19;129865;-69
2023/10/16 13:30:05;;;;;;;47.90;2.47;;;;;;;22.44;55.82;99865.31;7314100;19;129256;-68
2023/10/16 13:32:31;;;;;;;27.88;1.70;;;;;;;22.46;55.97;99866.81;7313130;19;129827;-67